Time;durP1;ratioP1;P1;durP2;ratioP2;P2;SDS_P1;SDS_P2;PMS_P1;PMS_P2;Temp;Humidity;BMP_temperature;BMP_pressure;BME280_temperature;BME280_humidity;BME280_pressure;Samples;Min_cycle;Max_cycle;Signal;HPM_P1;HPM_P2
2021/05/23 00:02:07;;;;;;;1.07;0.60;;;;;;;;;;4942201;28;20547;-75
2021/05/23 00:04:33;;;;;;;3.53;2.93;;;;;;;;;;4945865;28;20461;-75
2021/05/23 00:06:59;;;;;;;1.03;0.70;;;;;;;;;;4962401;28;20477;-75
2021/05/23 00:09:26;;;;;;;0.53;0.53;;;;;;;;;;4966572;28;20934;-75
2021/05/23 00:11:52;;;;;;;0.60;0.60;;;;;;;;;;4963718;28;20910;-75
2021/05/23 00:14:21;;;;;;;0.60;0.60;;;;;;;;;;4944537;28;20449;-75
2021/05/23 00:16:48;;;;;;;0.87;0.80;;;;;;;;;;4963544;28;20452;-74
2021/05/23 00:19:14;;;;;;;0.53;0.53;;;;;;;;;;4959292;28;20805;-74
2021/05/23 00:21:40;;;;;;;3.70;2.80;;;;;;;;;;4945672;28;20465;-76
2021/05/23 00:24:09;;;;;;;3.13;0.80;;;;;;;;;;4941630;28;20882;-76
2021/05/23 00:26:35;;;;;;;1.57;1.47;;;;;;;;;;4966891;28;20500;-75
2021/05/23 00:29:01;;;;;;;3.03;0.87;;;;;;;;;;4943092;28;20459;-75
2021/05/23 00:31:27;;;;;;;3.80;1.00;;;;;;;;;;4963842;28;20954;-75
2021/05/23 00:33:53;;;;;;;0.50;0.50;;;;;;;;;;4965934;28;20468;-74
2021/05/23 00:36:19;;;;;;;0.50;0.50;;;;;;;;;;4967771;28;20455;-75
2021/05/23 00:38:45;;;;;;;1.73;0.60;;;;;;;;;;4947795;28;20472;-74
2021/05/23 00:41:12;;;;;;;1.27;0.53;;;;;;;;;;4948527;28;20552;-75
2021/05/23 00:43:38;;;;;;;5.00;0.70;;;;;;;;;;4962001;28;20453;-75
2021/05/23 00:46:04;;;;;;;1.63;0.70;;;;;;;;;;4964917;28;20472;-75
2021/05/23 00:48:30;;;;;;;1.80;0.90;;;;;;;;;;4944628;28;20465;-75
2021/05/23 00:50:57;;;;;;;2.00;0.93;;;;;;;;;;4963315;28;20446;-75
2021/05/23 00:53:23;;;;;;;1.20;0.57;;;;;;;;;;4947420;28;20484;-75
2021/05/23 00:55:49;;;;;;;1.13;0.67;;;;;;;;;;4959693;28;20444;-75
2021/05/23 00:58:15;;;;;;;1.23;1.07;;;;;;;;;;4952554;28;20898;-75
2021/05/23 01:00:42;;;;;;;1.10;1.00;;;;;;;;;;4958107;28;20956;-75
2021/05/23 01:03:29;;;;;;;1.00;0.67;;;;;;;;;;4965695;28;20456;-74
2021/05/23 01:05:56;;;;;;;0.90;0.60;;;;;;;;;;4962623;28;20473;-75
2021/05/23 01:08:22;;;;;;;0.50;0.50;;;;;;;;;;4938883;28;20553;-75
2021/05/23 01:11:04;;;;;;;0.67;0.50;;;;;;;;;;4961924;28;20440;-75
2021/05/23 01:13:50;;;;;;;3.90;1.07;;;;;;;;;;4946288;28;20869;-75
2021/05/23 01:16:18;;;;;;;0.63;0.63;;;;;;;;;;4945676;28;20441;-75
2021/05/23 01:18:51;;;;;;;5.60;0.70;;;;;;;;;;4936236;28;20475;-75
2021/05/23 01:21:18;;;;;;;1.17;0.67;;;;;;;;;;4957038;28;20476;-75
2021/05/23 01:23:54;;;;;;;1.83;0.70;;;;;;;;;;4963693;28;20498;-75
2021/05/23 01:26:21;;;;;;;1.07;0.40;;;;;;;;;;4957284;28;20473;-75
2021/05/23 01:28:59;;;;;;;0.60;0.60;;;;;;;;;;4958448;28;20454;-75
2021/05/23 01:31:27;;;;;;;0.53;0.53;;;;;;;;;;4941850;28;20449;-75
2021/05/23 01:33:54;;;;;;;7.60;0.90;;;;;;;;;;4965562;28;20433;-75
2021/05/23 01:36:24;;;;;;;0.87;0.60;;;;;;;;;;4942393;28;20478;-76
2021/05/23 01:38:51;;;;;;;1.23;0.60;;;;;;;;;;4966065;28;20477;-75
2021/05/23 01:41:17;;;;;;;2.53;1.20;;;;;;;;;;4967830;28;20473;-75
2021/05/23 01:43:43;;;;;;;1.77;0.87;;;;;;;;;;4958167;28;21006;-75
2021/05/23 01:46:10;;;;;;;0.70;0.60;;;;;;;;;;4958137;28;20481;-75
2021/05/23 01:48:37;;;;;;;1.87;0.73;;;;;;;;;;4966131;28;20453;-75
2021/05/23 01:51:04;;;;;;;1.90;0.83;;;;;;;;;;4940443;28;20438;-76
2021/05/23 01:53:30;;;;;;;4.17;1.70;;;;;;;;;;4940624;28;20466;-74
2021/05/23 01:55:56;;;;;;;0.60;0.60;;;;;;;;;;4965020;28;20529;-75
2021/05/23 01:58:22;;;;;;;0.80;0.70;;;;;;;;;;4939421;28;21078;-75
2021/05/23 02:00:49;;;;;;;2.00;1.40;;;;;;;;;;4958765;28;20441;-74
2021/05/23 02:03:16;;;;;;;3.10;1.00;;;;;;;;;;4963513;28;20438;-75
2021/05/23 02:05:47;;;;;;;1.23;0.87;;;;;;;;;;4960276;28;20474;-74
2021/05/23 02:08:16;;;;;;;1.17;0.60;;;;;;;;;;4939330;28;20462;-75
2021/05/23 02:10:42;;;;;;;0.50;0.50;;;;;;;;;;4942693;28;20450;-75
2021/05/23 02:13:09;;;;;;;8.07;0.90;;;;;;;;;;4956063;28;20443;-75
2021/05/23 02:15:36;;;;;;;1.10;0.80;;;;;;;;;;4959354;28;20474;-74
2021/05/23 02:18:03;;;;;;;1.23;0.83;;;;;;;;;;4943772;28;20856;-74
2021/05/23 02:20:30;;;;;;;0.80;0.80;;;;;;;;;;4957348;28;20446;-74
2021/05/23 02:22:57;;;;;;;4.00;0.80;;;;;;;;;;4957339;28;20500;-74
2021/05/23 02:25:23;;;;;;;1.63;0.90;;;;;;;;;;4960082;28;20476;-75
2021/05/23 02:27:58;;;;;;;1.23;1.10;;;;;;;;;;4962948;28;20561;-75
2021/05/23 02:30:28;;;;;;;1.07;0.60;;;;;;;;;;4950229;28;20436;-75
2021/05/23 02:32:55;;;;;;;1.43;0.70;;;;;;;;;;4956381;28;20441;-75
2021/05/23 02:35:21;;;;;;;1.17;0.80;;;;;;;;;;4958893;28;20450;-75
2021/05/23 02:37:48;;;;;;;0.83;0.63;;;;;;;;;;4959282;28;20512;-75
2021/05/23 02:40:15;;;;;;;0.97;0.70;;;;;;;;;;4955576;28;20472;-75
2021/05/23 02:42:41;;;;;;;1.57;0.80;;;;;;;;;;4943999;28;20440;-76
2021/05/23 02:45:08;;;;;;;7.57;1.33;;;;;;;;;;4943282;28;20476;-75
2021/05/23 02:47:35;;;;;;;2.50;0.77;;;;;;;;;;4936439;28;20478;-76
2021/05/23 02:50:01;;;;;;;0.80;0.80;;;;;;;;;;4966070;28;20442;-75
2021/05/23 02:52:27;;;;;;;0.87;0.83;;;;;;;;;;4966966;28;20445;-75
2021/05/23 02:54:53;;;;;;;3.47;0.80;;;;;;;;;;4944879;28;20492;-75
2021/05/23 02:57:19;;;;;;;0.50;0.50;;;;;;;;;;4945666;28;20834;-75
2021/05/23 02:59:45;;;;;;;4.30;0.80;;;;;;;;;;4957859;28;21126;-75
2021/05/23 03:02:12;;;;;;;3.20;0.60;;;;;;;;;;4958035;28;20433;-75
2021/05/23 03:04:38;;;;;;;4.10;0.80;;;;;;;;;;4944524;28;20885;-75
2021/05/23 03:07:04;;;;;;;0.83;0.57;;;;;;;;;;4962575;28;20473;-75
2021/05/23 03:09:30;;;;;;;1.00;0.80;;;;;;;;;;4962347;28;20438;-75
2021/05/23 03:11:56;;;;;;;1.93;0.80;;;;;;;;;;4964071;28;20452;-75
2021/05/23 03:14:22;;;;;;;0.60;0.60;;;;;;;;;;4965405;28;21014;-74
2021/05/23 03:16:48;;;;;;;0.63;0.63;;;;;;;;;;4942444;28;20518;-74
2021/05/23 03:19:14;;;;;;;1.43;0.93;;;;;;;;;;4944429;28;20953;-75
2021/05/23 03:21:40;;;;;;;0.47;0.47;;;;;;;;;;4960515;28;20446;-76
2021/05/23 03:24:07;;;;;;;0.83;0.80;;;;;;;;;;4962609;28;20508;-75
2021/05/23 03:26:33;;;;;;;4.00;1.27;;;;;;;;;;4964937;28;20488;-75
2021/05/23 03:28:59;;;;;;;3.07;1.17;;;;;;;;;;4947517;28;21015;-75
2021/05/23 03:31:25;;;;;;;0.90;0.73;;;;;;;;;;4943075;28;20433;-75
2021/05/23 03:33:51;;;;;;;1.60;1.00;;;;;;;;;;4964388;28;20481;-75
2021/05/23 03:36:17;;;;;;;0.90;0.70;;;;;;;;;;4963715;28;20488;-75
2021/05/23 03:38:44;;;;;;;2.10;0.97;;;;;;;;;;4965430;28;20512;-75
2021/05/23 03:41:11;;;;;;;4.30;1.13;;;;;;;;;;4941300;28;20442;-75
2021/05/23 03:43:37;;;;;;;1.47;1.00;;;;;;;;;;4942155;28;20477;-75
2021/05/23 03:46:03;;;;;;;1.63;1.00;;;;;;;;;;4964734;28;20469;-75
2021/05/23 03:48:29;;;;;;;0.67;0.67;;;;;;;;;;4961390;28;21004;-75
2021/05/23 03:50:55;;;;;;;2.50;0.70;;;;;;;;;;4956517;28;20476;-75
2021/05/23 03:53:21;;;;;;;1.50;0.70;;;;;;;;;;4967153;28;20437;-75
2021/05/23 03:55:49;;;;;;;8.13;1.23;;;;;;;;;;4942146;28;20458;-75
2021/05/23 03:58:15;;;;;;;1.17;0.60;;;;;;;;;;4956755;28;20466;-75
2021/05/23 04:00:41;;;;;;;4.03;1.13;;;;;;;;;;4961836;28;20520;-75
2021/05/23 04:03:07;;;;;;;3.03;1.00;;;;;;;;;;4958783;28;20537;-75
2021/05/23 04:05:33;;;;;;;0.90;0.63;;;;;;;;;;4940952;28;20474;-75
2021/05/23 04:07:59;;;;;;;1.13;0.70;;;;;;;;;;4940090;28;20457;-75
2021/05/23 04:10:30;;;;;;;1.47;0.53;;;;;;;;;;4957982;28;20437;-76
2021/05/23 04:12:57;;;;;;;0.90;0.70;;;;;;;;;;4957059;28;20779;-75
2021/05/23 04:15:24;;;;;;;2.07;0.73;;;;;;;;;;4955813;28;20817;-75
2021/05/23 04:17:50;;;;;;;1.07;0.87;;;;;;;;;;4943122;28;20540;-75
2021/05/23 04:20:19;;;;;;;0.80;0.80;;;;;;;;;;4956373;28;20991;-75
2021/05/23 04:22:45;;;;;;;2.00;1.00;;;;;;;;;;4963218;28;20437;-76
2021/05/23 04:25:13;;;;;;;4.63;1.23;;;;;;;;;;4960640;28;20429;-75
2021/05/23 04:27:40;;;;;;;0.97;0.60;;;;;;;;;;4941314;28;20562;-75
2021/05/23 04:30:07;;;;;;;0.80;0.80;;;;;;;;;;4938020;28;20442;-75
2021/05/23 04:32:33;;;;;;;2.60;1.20;;;;;;;;;;4955178;28;20453;-75
2021/05/23 04:34:59;;;;;;;0.70;0.70;;;;;;;;;;4954445;28;20948;-76
2021/05/23 04:37:25;;;;;;;1.17;0.67;;;;;;;;;;4963295;28;20469;-75
2021/05/23 04:39:51;;;;;;;1.97;0.67;;;;;;;;;;4959365;28;20465;-75
2021/05/23 04:42:17;;;;;;;0.80;0.57;;;;;;;;;;4963962;28;20474;-75
2021/05/23 04:44:43;;;;;;;1.37;0.87;;;;;;;;;;4963534;28;20456;-76
2021/05/23 04:47:09;;;;;;;3.33;0.90;;;;;;;;;;4941055;28;20545;-75
2021/05/23 04:49:39;;;;;;;1.03;0.80;;;;;;;;;;4946429;28;20946;-75
2021/05/23 04:52:08;;;;;;;1.70;0.80;;;;;;;;;;4964186;28;20964;-75
2021/05/23 04:54:35;;;;;;;2.10;1.50;;;;;;;;;;4942356;29;20582;-75
2021/05/23 04:57:01;;;;;;;0.60;0.50;;;;;;;;;;4965798;28;20452;-76
2021/05/23 04:59:27;;;;;;;1.10;1.00;;;;;;;;;;4964655;28;20437;-76
2021/05/23 05:01:53;;;;;;;1.40;1.30;;;;;;;;;;4941148;28;20453;-76
2021/05/23 05:04:19;;;;;;;0.60;0.60;;;;;;;;;;4968577;28;20441;-75
2021/05/23 05:06:45;;;;;;;0.50;0.50;;;;;;;;;;4963181;28;20568;-75
2021/05/23 05:09:11;;;;;;;2.20;0.77;;;;;;;;;;4952804;28;20932;-75
2021/05/23 05:11:37;;;;;;;1.77;1.10;;;;;;;;;;4965067;28;20442;-76
2021/05/23 05:14:04;;;;;;;1.00;0.70;;;;;;;;;;4949435;28;20577;-76
2021/05/23 05:16:30;;;;;;;0.50;0.50;;;;;;;;;;4963983;28;20512;-75
2021/05/23 05:18:56;;;;;;;0.60;0.60;;;;;;;;;;4942958;28;20466;-75
2021/05/23 05:21:22;;;;;;;1.50;1.03;;;;;;;;;;4945250;28;20445;-76
2021/05/23 05:23:48;;;;;;;2.67;0.50;;;;;;;;;;4962073;28;20851;-76
2021/05/23 05:26:14;;;;;;;0.70;0.70;;;;;;;;;;4942967;28;20465;-75
2021/05/23 05:28:41;;;;;;;0.77;0.77;;;;;;;;;;4948906;28;20457;-76
2021/05/23 05:31:07;;;;;;;0.93;0.73;;;;;;;;;;4957973;28;20810;-75
2021/05/23 05:33:33;;;;;;;0.50;0.50;;;;;;;;;;4961909;28;20438;-75
2021/05/23 05:35:59;;;;;;;6.83;2.03;;;;;;;;;;4957775;28;20443;-76
2021/05/23 05:38:25;;;;;;;1.20;0.70;;;;;;;;;;4962087;28;20940;-75
2021/05/23 05:40:51;;;;;;;3.23;0.80;;;;;;;;;;4965232;28;20452;-75
2021/05/23 05:43:18;;;;;;;2.43;1.30;;;;;;;;;;4947348;28;20445;-76
2021/05/23 05:45:44;;;;;;;1.17;1.07;;;;;;;;;;4959889;28;20838;-76
2021/05/23 05:48:10;;;;;;;0.60;0.60;;;;;;;;;;4943356;28;20525;-76
2021/05/23 05:50:36;;;;;;;1.00;0.60;;;;;;;;;;4946564;28;20445;-75
2021/05/23 05:53:02;;;;;;;0.60;0.60;;;;;;;;;;4964830;28;20829;-75
2021/05/23 05:55:28;;;;;;;0.57;0.57;;;;;;;;;;4960384;28;20456;-75
2021/05/23 05:57:54;;;;;;;0.80;0.50;;;;;;;;;;4965592;28;20466;-75
2021/05/23 06:00:21;;;;;;;0.63;0.63;;;;;;;;;;4960401;28;20449;-75
2021/05/23 06:02:47;;;;;;;0.97;0.80;;;;;;;;;;4956428;28;20892;-75
2021/05/23 06:05:13;;;;;;;4.93;0.80;;;;;;;;;;4943351;28;20988;-75
2021/05/23 06:07:39;;;;;;;1.33;0.67;;;;;;;;;;4944525;28;20465;-75
2021/05/23 06:10:05;;;;;;;1.33;0.70;;;;;;;;;;4959246;28;20439;-76
2021/05/23 06:12:31;;;;;;;0.83;0.50;;;;;;;;;;4949019;28;20440;-77
2021/05/23 06:14:57;;;;;;;0.40;0.40;;;;;;;;;;4958975;28;20496;-78
2021/05/23 06:17:23;;;;;;;0.60;0.57;;;;;;;;;;4943889;28;20576;-75
2021/05/23 06:19:49;;;;;;;1.53;0.50;;;;;;;;;;4941951;28;20749;-76
2021/05/23 06:22:15;;;;;;;1.00;0.43;;;;;;;;;;4961447;28;20504;-76
2021/05/23 06:24:41;;;;;;;0.67;0.67;;;;;;;;;;4963380;28;20446;-75
2021/05/23 06:27:07;;;;;;;1.70;0.67;;;;;;;;;;4956713;28;20474;-75
2021/05/23 06:29:33;;;;;;;2.97;0.80;;;;;;;;;;4932983;28;20446;-75
2021/05/23 06:31:59;;;;;;;0.83;0.80;;;;;;;;;;4961000;28;20481;-76
2021/05/23 06:34:25;;;;;;;0.40;0.40;;;;;;;;;;4937325;29;20438;-76
2021/05/23 06:36:52;;;;;;;1.30;0.80;;;;;;;;;;4960506;28;20921;-75
2021/05/23 06:39:18;;;;;;;1.77;0.60;;;;;;;;;;4966050;28;20441;-76
2021/05/23 06:41:44;;;;;;;1.60;0.60;;;;;;;;;;4969749;28;21314;-76
2021/05/23 06:44:10;;;;;;;1.90;0.90;;;;;;;;;;4961507;28;20441;-76
2021/05/23 06:46:36;;;;;;;1.20;0.67;;;;;;;;;;4960766;28;20469;-75
2021/05/23 06:49:02;;;;;;;0.60;0.60;;;;;;;;;;4939068;28;20461;-75
2021/05/23 06:51:28;;;;;;;1.33;0.70;;;;;;;;;;4955932;28;20493;-75
2021/05/23 06:53:54;;;;;;;3.80;0.60;;;;;;;;;;4950700;28;20450;-75
2021/05/23 06:56:20;;;;;;;1.90;0.63;;;;;;;;;;4964524;28;20488;-75
2021/05/23 06:58:46;;;;;;;1.80;0.87;;;;;;;;;;4959682;28;20458;-75
2021/05/23 07:01:13;;;;;;;1.47;0.73;;;;;;;;;;4931742;28;20450;-75
2021/05/23 07:03:39;;;;;;;0.73;0.70;;;;;;;;;;4957856;28;21140;-75
2021/05/23 07:06:05;;;;;;;2.40;0.67;;;;;;;;;;4963734;28;20473;-75
2021/05/23 07:08:31;;;;;;;1.77;1.47;;;;;;;;;;4965602;28;20462;-74
2021/05/23 07:10:57;;;;;;;1.13;0.70;;;;;;;;;;4963784;28;20436;-75
2021/05/23 07:13:25;;;;;;;1.07;0.60;;;;;;;;;;4961109;28;20437;-75
2021/05/23 07:15:51;;;;;;;0.60;0.60;;;;;;;;;;4955203;28;21236;-73
2021/05/23 07:18:17;;;;;;;0.50;0.50;;;;;;;;;;4955380;28;20465;-74
2021/05/23 07:20:44;;;;;;;0.63;0.53;;;;;;;;;;4961460;28;20454;-74
2021/05/23 07:23:11;;;;;;;0.87;0.80;;;;;;;;;;4962092;28;20863;-74
2021/05/23 07:25:37;;;;;;;0.70;0.70;;;;;;;;;;4947862;28;20853;-75
2021/05/23 07:28:03;;;;;;;1.70;0.50;;;;;;;;;;4946220;28;20468;-74
2021/05/23 07:30:29;;;;;;;2.63;0.70;;;;;;;;;;4945278;28;20456;-75
2021/05/23 07:32:55;;;;;;;0.60;0.60;;;;;;;;;;4960272;28;20433;-74
2021/05/23 07:35:23;;;;;;;0.50;0.40;;;;;;;;;;4960039;28;20449;-75
2021/05/23 07:37:49;;;;;;;3.13;1.00;;;;;;;;;;4957922;28;20553;-75
2021/05/23 07:40:15;;;;;;;1.57;0.83;;;;;;;;;;4938516;28;20430;-73
2021/05/23 07:42:42;;;;;;;0.83;0.60;;;;;;;;;;4965560;28;20445;-74
2021/05/23 07:45:08;;;;;;;1.67;0.50;;;;;;;;;;4953888;28;20958;-73
2021/05/23 07:47:35;;;;;;;2.20;0.70;;;;;;;;;;4941013;28;20474;-74
2021/05/23 07:50:01;;;;;;;1.80;0.70;;;;;;;;;;4959137;28;20437;-74
2021/05/23 07:52:27;;;;;;;0.73;0.70;;;;;;;;;;4963725;28;20917;-76
2021/05/23 07:54:53;;;;;;;0.50;0.50;;;;;;;;;;4936698;28;20437;-75
2021/05/23 07:57:20;;;;;;;0.50;0.50;;;;;;;;;;4940701;28;20458;-74
2021/05/23 07:59:46;;;;;;;4.07;2.30;;;;;;;;;;4961915;28;20449;-74
2021/05/23 08:02:12;;;;;;;0.87;0.50;;;;;;;;;;4953910;28;20864;-74
2021/05/23 08:04:38;;;;;;;2.30;0.50;;;;;;;;;;4942459;28;20518;-74
2021/05/23 08:07:04;;;;;;;1.07;0.60;;;;;;;;;;4952900;28;20568;-74
2021/05/23 08:09:30;;;;;;;0.50;0.50;;;;;;;;;;4961884;28;20450;-73
2021/05/23 08:11:56;;;;;;;1.27;0.80;;;;;;;;;;4960246;28;20932;-74
2021/05/23 08:14:22;;;;;;;0.60;0.60;;;;;;;;;;4961764;28;20437;-74
2021/05/23 08:16:48;;;;;;;1.00;1.00;;;;;;;;;;4967787;28;20843;-74
2021/05/23 08:19:14;;;;;;;1.70;0.50;;;;;;;;;;4960674;28;20948;-74
2021/05/23 08:21:41;;;;;;;1.00;0.90;;;;;;;;;;4963622;28;20434;-74
2021/05/23 08:24:07;;;;;;;1.07;0.40;;;;;;;;;;4963718;28;20882;-74
2021/05/23 08:26:34;;;;;;;2.30;0.93;;;;;;;;;;4946445;28;20461;-74
2021/05/23 08:29:00;;;;;;;1.13;0.70;;;;;;;;;;4949253;28;21007;-73
2021/05/23 08:31:26;;;;;;;1.03;0.70;;;;;;;;;;4962195;28;20438;-74
2021/05/23 08:33:52;;;;;;;0.50;0.50;;;;;;;;;;4945733;28;20433;-74
2021/05/23 08:36:19;;;;;;;1.17;0.70;;;;;;;;;;4949581;28;20441;-73
2021/05/23 08:38:45;;;;;;;0.50;0.50;;;;;;;;;;4961865;28;20473;-75
2021/05/23 08:41:11;;;;;;;0.60;0.60;;;;;;;;;;4963724;28;21138;-74
2021/05/23 08:43:37;;;;;;;0.90;0.80;;;;;;;;;;4959483;28;20469;-75
2021/05/23 08:46:03;;;;;;;3.57;0.80;;;;;;;;;;4962311;28;20552;-74
2021/05/23 08:48:29;;;;;;;0.60;0.53;;;;;;;;;;4971486;28;20513;-73
2021/05/23 08:50:55;;;;;;;1.33;0.80;;;;;;;;;;4961318;28;20546;-74
2021/05/23 08:53:22;;;;;;;8.60;1.07;;;;;;;;;;4960682;28;20427;-74
2021/05/23 08:55:48;;;;;;;4.80;1.07;;;;;;;;;;4965068;28;20441;-74
2021/05/23 08:58:15;;;;;;;2.50;1.00;;;;;;;;;;4960824;28;20581;-74
2021/05/23 09:00:41;;;;;;;2.10;1.53;;;;;;;;;;4963024;28;20435;-73
2021/05/23 09:03:08;;;;;;;1.43;0.70;;;;;;;;;;4960792;28;20445;-74
2021/05/23 09:05:34;;;;;;;0.90;0.57;;;;;;;;;;4963819;28;20438;-74
2021/05/23 09:08:01;;;;;;;0.70;0.60;;;;;;;;;;4970458;28;21119;-74
2021/05/23 09:10:28;;;;;;;0.53;0.53;;;;;;;;;;4969406;28;20430;-73
2021/05/23 09:12:54;;;;;;;1.23;0.50;;;;;;;;;;4945971;28;20445;-73
2021/05/23 09:15:21;;;;;;;0.50;0.50;;;;;;;;;;4949404;28;20519;-74
2021/05/23 09:17:47;;;;;;;0.63;0.63;;;;;;;;;;4946886;28;20593;-73
2021/05/23 09:20:18;;;;;;;1.20;1.00;;;;;;;;;;4960047;28;20533;-74
2021/05/23 09:22:52;;;;;;;0.70;0.50;;;;;;;;;;4957924;28;20441;-74
2021/05/23 09:25:27;;;;;;;0.60;0.53;;;;;;;;;;4958758;28;20437;-72
2021/05/23 09:27:53;;;;;;;3.73;0.90;;;;;;;;;;4958212;28;20473;-74
2021/05/23 09:30:22;;;;;;;1.07;0.67;;;;;;;;;;4950358;28;20465;-75
2021/05/23 09:32:49;;;;;;;1.73;0.90;;;;;;;;;;4969462;28;20431;-74
2021/05/23 09:35:16;;;;;;;0.60;0.60;;;;;;;;;;4954464;28;20410;-74
2021/05/23 09:37:42;;;;;;;1.50;0.70;;;;;;;;;;4943857;28;20607;-73
2021/05/23 09:40:16;;;;;;;2.27;1.10;;;;;;;;;;4947382;28;20452;-74
2021/05/23 09:42:46;;;;;;;1.60;0.90;;;;;;;;;;4935840;28;20537;-74
2021/05/23 09:45:12;;;;;;;0.50;0.50;;;;;;;;;;4957792;28;20450;-73
2021/05/23 09:47:48;;;;;;;1.10;0.70;;;;;;;;;;4953339;28;20486;-74
2021/05/23 09:50:14;;;;;;;1.10;0.90;;;;;;;;;;4962719;28;20504;-75
2021/05/23 09:52:40;;;;;;;0.80;0.80;;;;;;;;;;4961620;28;20470;-74
2021/05/23 09:55:07;;;;;;;0.77;0.77;;;;;;;;;;4942427;28;20496;-74
2021/05/23 09:57:33;;;;;;;0.63;0.63;;;;;;;;;;4959138;28;20457;-74
2021/05/23 10:00:00;;;;;;;1.00;0.70;;;;;;;;;;4966345;28;20470;-74
2021/05/23 10:02:26;;;;;;;4.60;1.23;;;;;;;;;;4962551;28;20529;-74
2021/05/23 10:04:52;;;;;;;1.17;0.90;;;;;;;;;;4963985;28;20434;-74
2021/05/23 10:07:18;;;;;;;3.70;1.10;;;;;;;;;;4960633;28;20560;-73
2021/05/23 10:09:44;;;;;;;1.37;0.83;;;;;;;;;;4947386;28;20530;-73
2021/05/23 10:12:14;;;;;;;0.90;0.80;;;;;;;;;;4962319;28;20581;-73
2021/05/23 10:14:40;;;;;;;1.27;1.13;;;;;;;;;;4967682;28;20537;-73
2021/05/23 10:17:07;;;;;;;1.43;1.33;;;;;;;;;;4949149;28;20492;-74
2021/05/23 10:19:34;;;;;;;1.10;1.00;;;;;;;;;;4959806;28;20442;-74
2021/05/23 10:22:02;;;;;;;1.07;1.03;;;;;;;;;;4956236;28;20942;-74
2021/05/23 10:25:00;;;;;;;1.43;1.30;;;;;;;;;;4962519;28;20451;-74
2021/05/23 10:27:31;;;;;;;2.17;1.37;;;;;;;;;;4930644;28;20489;-74
2021/05/23 10:29:58;;;;;;;1.17;0.93;;;;;;;;;;4961193;28;20447;-74
2021/05/23 10:32:29;;;;;;;1.00;0.90;;;;;;;;;;4965640;28;20441;-74
2021/05/23 10:34:55;;;;;;;4.63;1.43;;;;;;;;;;4962291;28;20820;-73
2021/05/23 10:37:29;;;;;;;7.60;1.53;;;;;;;;;;4957804;28;20496;-74
2021/05/23 10:39:55;;;;;;;1.00;1.00;;;;;;;;;;4948443;28;20442;-73
2021/05/23 10:42:23;;;;;;;5.17;1.20;;;;;;;;;;4962122;28;20952;-74
2021/05/23 10:44:50;;;;;;;1.93;1.00;;;;;;;;;;4961451;28;20438;-74
2021/05/23 10:47:16;;;;;;;1.33;1.23;;;;;;;;;;4958237;28;21010;-74
2021/05/23 10:49:50;;;;;;;2.10;1.20;;;;;;;;;;4957947;28;20441;-74
2021/05/23 10:52:16;;;;;;;7.30;1.50;;;;;;;;;;4946942;28;20443;-74
2021/05/23 10:54:54;;;;;;;0.80;0.80;;;;;;;;;;4963359;28;20924;-73
2021/05/23 10:57:20;;;;;;;6.73;2.13;;;;;;;;;;4960845;28;20967;-73
2021/05/23 10:59:56;;;;;;;1.37;1.17;;;;;;;;;;4956303;28;20433;-73
2021/05/23 11:02:22;;;;;;;1.10;1.00;;;;;;;;;;4937271;28;20459;-73
2021/05/23 11:04:49;;;;;;;4.60;1.50;;;;;;;;;;4957916;28;20445;-72
2021/05/23 11:07:15;;;;;;;1.53;1.30;;;;;;;;;;4937724;28;20481;-74
2021/05/23 11:09:43;;;;;;;1.30;1.20;;;;;;;;;;4949882;28;20434;-74
2021/05/23 11:12:10;;;;;;;1.43;1.33;;;;;;;;;;4959353;28;20525;-74
2021/05/23 11:14:36;;;;;;;1.97;1.40;;;;;;;;;;4956941;28;20948;-74
2021/05/23 11:17:02;;;;;;;1.90;1.73;;;;;;;;;;4935145;28;20453;-74
2021/05/23 11:19:32;;;;;;;1.30;1.20;;;;;;;;;;4945370;28;20460;-73
2021/05/23 11:21:59;;;;;;;1.50;1.40;;;;;;;;;;4943048;28;20461;-75
2021/05/23 11:24:29;;;;;;;1.80;1.50;;;;;;;;;;4958026;28;20473;-75
2021/05/23 11:26:56;;;;;;;3.00;2.23;;;;;;;;;;4960999;28;21106;-74
2021/05/23 11:29:24;;;;;;;3.77;2.10;;;;;;;;;;4956306;28;20438;-74
2021/05/23 11:31:51;;;;;;;1.70;1.60;;;;;;;;;;4959138;28;20828;-74
2021/05/23 11:34:21;;;;;;;2.30;2.10;;;;;;;;;;4942618;28;20447;-74
2021/05/23 11:36:48;;;;;;;3.50;1.93;;;;;;;;;;4956325;28;20441;-73
2021/05/23 11:39:14;;;;;;;2.00;1.40;;;;;;;;;;4959497;28;20439;-74
2021/05/23 11:41:41;;;;;;;3.10;1.20;;;;;;;;;;4937648;28;20505;-73
2021/05/23 11:44:10;;;;;;;1.00;1.00;;;;;;;;;;4962921;28;20438;-75
2021/05/23 11:46:36;;;;;;;1.20;1.10;;;;;;;;;;4960857;28;20568;-73
2021/05/23 11:49:02;;;;;;;0.70;0.70;;;;;;;;;;4941175;28;20477;-73
2021/05/23 11:51:30;;;;;;;0.97;0.97;;;;;;;;;;4956729;28;20461;-74
2021/05/23 11:53:57;;;;;;;0.93;0.73;;;;;;;;;;4946094;28;20445;-74
2021/05/23 11:56:24;;;;;;;0.70;0.70;;;;;;;;;;4967690;28;20441;-74
2021/05/23 11:58:55;;;;;;;0.83;0.83;;;;;;;;;;4962782;28;20549;-75
2021/05/23 12:01:26;;;;;;;0.60;0.60;;;;;;;;;;4948099;28;20832;-75
2021/05/23 12:04:12;;;;;;;0.70;0.70;;;;;;;;;;4962872;28;20861;-74
2021/05/23 12:06:48;;;;;;;0.70;0.70;;;;;;;;;;4965441;28;20472;-75
2021/05/23 12:09:18;;;;;;;0.80;0.80;;;;;;;;;;4959507;28;20797;-77
2021/05/23 12:11:46;;;;;;;1.13;0.70;;;;;;;;;;4953852;28;20536;-75
2021/05/23 12:14:24;;;;;;;0.67;0.67;;;;;;;;;;4969626;28;20438;-73
2021/05/23 12:16:59;;;;;;;0.60;0.60;;;;;;;;;;4947158;28;20452;-73
2021/05/23 12:19:45;;;;;;;0.73;0.60;;;;;;;;;;4972769;28;20432;-73
2021/05/23 12:22:11;;;;;;;0.60;0.60;;;;;;;;;;4971160;28;20513;-74
2021/05/23 12:24:37;;;;;;;0.73;0.73;;;;;;;;;;4958236;28;20451;-74
2021/05/23 12:27:03;;;;;;;0.57;0.57;;;;;;;;;;4952971;28;20469;-73
2021/05/23 12:29:29;;;;;;;0.50;0.50;;;;;;;;;;4954932;28;20449;-74
2021/05/23 12:31:55;;;;;;;0.70;0.70;;;;;;;;;;4950256;28;20465;-73
2021/05/23 12:34:21;;;;;;;0.50;0.50;;;;;;;;;;4954335;28;20902;-75
2021/05/23 12:36:48;;;;;;;0.50;0.50;;;;;;;;;;4950035;28;20482;-74
2021/05/23 12:39:20;;;;;;;0.60;0.60;;;;;;;;;;4964938;28;20468;-74
2021/05/23 12:41:47;;;;;;;0.60;0.60;;;;;;;;;;4954297;28;20452;-74
2021/05/23 12:44:17;;;;;;;0.50;0.50;;;;;;;;;;4976855;28;20421;-74
2021/05/23 12:46:43;;;;;;;0.83;0.80;;;;;;;;;;4975455;28;20838;-74
2021/05/23 12:49:20;;;;;;;0.60;0.60;;;;;;;;;;4953656;28;20472;-74
2021/05/23 12:51:48;;;;;;;0.77;0.77;;;;;;;;;;4959181;28;20480;-74
2021/05/23 12:54:23;;;;;;;0.83;0.83;;;;;;;;;;4953403;28;20450;-74
2021/05/23 12:56:49;;;;;;;0.60;0.60;;;;;;;;;;4975099;28;21095;-72
2021/05/23 12:59:18;;;;;;;0.63;0.63;;;;;;;;;;4975631;28;20509;-73
2021/05/23 13:01:45;;;;;;;0.60;0.60;;;;;;;;;;4977110;28;20413;-74
2021/05/23 13:04:21;;;;;;;0.60;0.60;;;;;;;;;;4959397;28;20469;-74
2021/05/23 13:06:56;;;;;;;0.73;0.73;;;;;;;;;;4962832;28;20853;-73
2021/05/23 13:09:23;;;;;;;0.70;0.70;;;;;;;;;;4964037;28;20499;-72
2021/05/23 13:11:53;;;;;;;0.97;0.83;;;;;;;;;;4961098;28;20532;-73
2021/05/23 13:14:20;;;;;;;1.00;0.90;;;;;;;;;;4964221;28;20454;-73
2021/05/23 13:16:57;;;;;;;0.80;0.80;;;;;;;;;;4965374;28;20486;-73
2021/05/23 13:19:30;;;;;;;0.73;0.73;;;;;;;;;;4962548;28;20453;-71
2021/05/23 13:21:58;;;;;;;0.87;0.70;;;;;;;;;;4945258;28;20995;-71
2021/05/23 13:24:26;;;;;;;1.00;1.00;;;;;;;;;;4968779;28;20533;-75
2021/05/23 13:26:57;;;;;;;1.47;1.00;;;;;;;;;;4962479;28;21099;-73
2021/05/23 13:29:24;;;;;;;1.97;1.57;;;;;;;;;;4961849;28;20441;-74
2021/05/23 13:31:50;;;;;;;0.73;0.73;;;;;;;;;;4959149;28;20441;-71
2021/05/23 13:34:16;;;;;;;0.87;0.87;;;;;;;;;;4956796;28;20441;-74
2021/05/23 13:36:42;;;;;;;1.00;1.00;;;;;;;;;;4950678;28;20532;-71
2021/05/23 13:39:09;;;;;;;1.47;1.00;;;;;;;;;;4958832;28;21027;-72
2021/05/23 13:41:37;;;;;;;1.13;1.00;;;;;;;;;;4960308;28;20536;-72
2021/05/23 13:44:07;;;;;;;0.50;0.50;;;;;;;;;;4967509;28;20464;-73
2021/05/23 13:46:33;;;;;;;4.77;2.30;;;;;;;;;;4947286;28;20557;-71
2021/05/23 13:49:00;;;;;;;0.53;0.53;;;;;;;;;;4964006;28;20888;-71
2021/05/23 13:51:26;;;;;;;1.23;1.13;;;;;;;;;;4949920;28;21035;-70
2021/05/23 13:53:52;;;;;;;1.10;1.00;;;;;;;;;;4945364;28;20521;-71
2021/05/23 13:56:18;;;;;;;0.60;0.60;;;;;;;;;;4946967;28;20536;-74
2021/05/23 13:58:44;;;;;;;0.60;0.60;;;;;;;;;;4962413;28;20564;-74
2021/05/23 14:01:11;;;;;;;0.70;0.70;;;;;;;;;;4964717;28;20446;-72
2021/05/23 14:03:37;;;;;;;1.13;0.90;;;;;;;;;;4964155;28;20576;-71
2021/05/23 14:06:03;;;;;;;1.20;1.00;;;;;;;;;;4960241;28;20473;-73
2021/05/23 14:08:31;;;;;;;0.90;0.90;;;;;;;;;;4959154;28;20462;-73
2021/05/23 14:10:58;;;;;;;1.27;0.60;;;;;;;;;;4954922;28;21558;-72
2021/05/23 14:13:24;;;;;;;0.70;0.70;;;;;;;;;;4947467;28;20453;-74
2021/05/23 14:15:53;;;;;;;1.10;1.00;;;;;;;;;;4947108;28;20446;-72
2021/05/23 14:18:19;;;;;;;0.80;0.80;;;;;;;;;;4943209;28;20474;-77
2021/05/23 14:20:45;;;;;;;1.83;0.87;;;;;;;;;;4964511;28;20446;-74
2021/05/23 14:23:11;;;;;;;0.80;0.80;;;;;;;;;;4959384;28;20458;-76
2021/05/23 14:25:37;;;;;;;1.47;1.37;;;;;;;;;;4963916;28;20445;-74
2021/05/23 14:28:04;;;;;;;1.73;1.27;;;;;;;;;;4962808;28;20481;-73
2021/05/23 14:30:30;;;;;;;1.73;1.20;;;;;;;;;;4964113;28;20461;-73
2021/05/23 14:32:56;;;;;;;2.00;1.90;;;;;;;;;;4957366;28;20466;-76
2021/05/23 14:35:23;;;;;;;2.93;2.73;;;;;;;;;;4968107;28;20515;-73
2021/05/23 14:37:50;;;;;;;1.13;1.10;;;;;;;;;;4962513;28;20520;-74
2021/05/23 14:40:16;;;;;;;1.30;1.20;;;;;;;;;;4960482;28;20453;-74
2021/05/23 14:42:43;;;;;;;1.03;1.03;;;;;;;;;;4946068;28;20982;-74
2021/05/23 14:45:09;;;;;;;1.20;1.10;;;;;;;;;;4947148;28;20448;-72